createdAt,value
2019-01-26T00:03:18.519Z,74.10
2019-01-26T00:06:19.047Z,73.90
2019-01-26T00:42:39.041Z,74.20
2019-01-26T02:35:54.915Z,73.90
2019-01-26T03:39:58.288Z,73.80
2019-01-26T03:52:36.289Z,74.90
2019-01-26T05:06:20.035Z,81.70
2019-01-26T05:53:08.047Z,83.40
2019-01-26T05:59:28.066Z,83.70
2019-01-26T06:02:30.222Z,84.30
2019-01-26T06:21:48.570Z,84.80
2019-01-26T06:45:56.915Z,86.90
2019-01-26T07:43:25.317Z,89.20
2019-01-26T07:46:42.967Z,89.00
2019-01-26T08:10:18.326Z,89.40
2019-01-26T08:13:06.336Z,89.60
2019-01-26T08:36:30.791Z,89.70
2019-01-26T08:40:01.398Z,89.80
2019-01-26T08:48:45.324Z,89.70
2019-01-26T08:55:06.965Z,89.90
2019-01-26T08:57:51.520Z,90.20
2019-01-26T09:00:36.181Z,90.00
2019-01-26T09:04:03.943Z,90.10
2019-01-26T09:10:09.095Z,89.50
2019-01-26T09:13:25.911Z,89.60
2019-01-26T09:19:24.922Z,90.30
2019-01-26T09:25:30.427Z,90.00
2019-01-26T09:28:09.825Z,90.00
2019-01-26T09:30:46.914Z,90.00
2019-01-26T09:33:24.805Z,89.60
2019-01-26T09:36:02.098Z,89.90
2019-01-26T09:38:38.560Z,90.00
2019-01-26T09:41:15.856Z,89.90
2019-01-26T09:43:51.910Z,89.80
2019-01-26T09:46:31.856Z,89.70
2019-01-26T09:49:09.752Z,89.80
2019-01-26T09:55:14.706Z,89.60
2019-01-26T10:01:29.900Z,89.90
2019-01-26T10:04:06.572Z,90.20
2019-01-26T10:06:44.882Z,90.40
2019-01-26T10:09:20.366Z,90.40
2019-01-26T10:11:56.178Z,90.40
2019-01-26T10:17:58.985Z,89.90
2019-01-26T10:24:03.731Z,89.90
2019-01-26T10:30:09.707Z,90.30
2019-01-26T10:32:46.414Z,90.10
2019-01-26T10:35:25.713Z,89.90
2019-01-26T10:38:00.748Z,89.90
2019-01-26T10:40:57.898Z,89.90
2019-01-26T10:43:34.415Z,90.20
2019-01-26T10:46:09.429Z,89.40
2019-01-26T10:48:45.866Z,89.90
2019-01-26T10:51:20.900Z,90.10
2019-01-26T10:53:56.430Z,90.30
2019-01-26T10:56:31.407Z,90.20
2019-01-26T10:59:05.795Z,90.40
2019-01-26T11:01:41.649Z,90.20
2019-01-26T11:04:17.705Z,90.30
2019-01-26T11:06:53.972Z,90.90
2019-01-26T11:09:30.025Z,90.80
2019-01-26T11:12:07.720Z,90.70
2019-01-26T11:17:47.896Z,90.30
2019-01-26T11:20:24.420Z,90.50
2019-01-26T11:23:00.008Z,90.20
2019-01-26T11:25:36.685Z,89.60
2019-01-26T11:28:11.921Z,89.60
2019-01-26T11:30:47.776Z,89.00
2019-01-26T11:33:30.383Z,88.40
2019-01-26T11:36:04.426Z,88.60
2019-01-26T11:38:39.631Z,88.90
2019-01-26T11:41:13.641Z,88.50
2019-01-26T11:43:50.723Z,88.10
2019-01-26T11:46:43.982Z,88.50
2019-01-26T11:49:19.835Z,88.50
2019-01-26T11:52:14.448Z,88.50
2019-01-26T11:55:18.644Z,88.30
2019-01-26T12:01:37.320Z,88.60
2019-01-26T12:04:37.340Z,88.70
2019-01-26T12:07:14.012Z,88.60
2019-01-26T12:09:52.443Z,88.60
2019-01-26T12:12:27.150Z,88.70
2019-01-26T12:15:03.013Z,88.70
2019-01-26T12:17:41.928Z,88.70
2019-01-26T12:20:19.450Z,88.90
2019-01-26T12:22:57.727Z,88.70
2019-01-26T12:25:33.443Z,87.90
2019-01-26T12:28:08.821Z,88.00
2019-01-26T12:30:43.657Z,88.00
2019-01-26T12:33:20.448Z,87.80
2019-01-26T12:36:04.985Z,87.70
2019-01-26T12:38:39.446Z,87.70
2019-01-26T12:41:14.463Z,87.70
2019-01-26T12:43:54.999Z,88.00
2019-01-26T12:46:31.669Z,88.20
2019-01-26T12:49:08.966Z,88.40
2019-01-26T12:51:45.014Z,88.60
2019-01-26T12:54:23.449Z,88.50
2019-01-26T12:57:09.006Z,88.70
2019-01-26T12:59:45.881Z,88.70
2019-01-26T13:02:21.940Z,88.60
2019-01-26T13:04:57.998Z,88.70
2019-01-26T13:07:32.452Z,88.80
2019-01-26T13:10:14.416Z,88.90
2019-01-26T13:12:49.649Z,88.90
2019-01-26T13:15:26.936Z,89.00
2019-01-26T13:18:03.198Z,89.40
2019-01-26T13:20:38.467Z,89.10
2019-01-26T13:23:15.450Z,88.40
2019-01-26T13:25:51.450Z,88.00
2019-01-26T13:28:25.996Z,88.40
2019-01-26T13:31:01.030Z,87.70
2019-01-26T13:33:38.930Z,88.00
2019-01-26T13:36:14.783Z,88.30
2019-01-26T13:42:22.197Z,88.60
2019-01-26T13:48:25.509Z,88.50
2019-01-26T13:54:31.589Z,88.30
2019-01-26T13:57:06.521Z,87.80
2019-01-26T13:59:47.301Z,88.60
2019-01-26T14:05:50.364Z,88.40
2019-01-26T14:14:48.510Z,89.90
2019-01-26T14:17:24.364Z,89.70
2019-01-26T14:20:00.214Z,89.70
2019-01-26T14:22:40.370Z,89.70
2019-01-26T14:28:44.298Z,89.80
2019-01-26T14:31:19.155Z,90.10
2019-01-26T14:33:55.717Z,90.10
2019-01-26T14:39:58.294Z,90.30
2019-01-26T14:42:33.532Z,90.20
2019-01-26T14:45:10.410Z,90.30
2019-01-26T14:51:13.111Z,90.20
2019-01-26T14:53:50.195Z,90.10
2019-01-26T14:56:48.234Z,90.20
2019-01-26T14:59:24.015Z,90.50
2019-01-26T15:01:58.434Z,90.20
2019-01-26T15:04:33.677Z,90.30
2019-01-26T15:07:09.218Z,89.90
2019-01-26T15:09:45.996Z,89.80
2019-01-26T15:12:21.744Z,89.70
2019-01-26T15:18:27.209Z,89.90
2019-01-26T15:24:30.597Z,90.20
2019-01-26T15:33:17.268Z,89.80
2019-01-26T15:35:52.746Z,90.00
2019-01-26T15:41:55.379Z,90.10
2019-01-26T15:47:58.318Z,90.20
2019-01-26T15:50:32.363Z,90.30
2019-01-26T15:53:06.203Z,90.50
2019-01-26T15:55:42.398Z,90.60
2019-01-26T15:58:19.479Z,90.60
2019-01-26T16:01:00.255Z,90.60
2019-01-26T16:03:38.558Z,90.60
2019-01-26T16:09:44.736Z,90.50
2019-01-26T16:16:04.313Z,90.60
2019-01-26T16:18:45.866Z,90.40
2019-01-26T16:21:20.888Z,90.30
2019-01-26T16:23:56.089Z,90.30
2019-01-26T16:26:32.351Z,90.40
2019-01-26T16:29:08.872Z,90.30
2019-01-26T16:31:44.467Z,90.40
2019-01-26T16:34:19.091Z,90.10
2019-01-26T16:36:53.305Z,90.00
2019-01-26T16:39:29.158Z,89.90
2019-01-26T16:42:05.422Z,90.00
2019-01-26T16:44:41.274Z,90.20
2019-01-26T16:47:19.382Z,90.40
2019-01-26T16:50:14.483Z,90.60
2019-01-26T16:52:50.335Z,90.30
2019-01-26T16:55:25.171Z,90.20
2019-01-26T16:58:00.877Z,90.60
2019-01-26T17:00:41.169Z,90.50
2019-01-26T17:03:16.874Z,91.00
2019-01-26T17:09:19.524Z,91.20
2019-01-26T17:11:55.370Z,91.40
2019-01-26T17:24:52.277Z,91.70
2019-01-26T17:27:29.572Z,91.70
2019-01-26T17:33:16.086Z,91.60
2019-01-26T17:39:20.016Z,91.80
2019-01-26T17:45:23.534Z,91.60
2019-01-26T17:51:31.255Z,91.60
2019-01-26T17:54:10.722Z,92.00
2019-01-26T17:56:53.640Z,92.00
2019-01-26T18:03:09.417Z,92.20
2019-01-26T18:05:46.292Z,92.20
2019-01-26T18:08:23.092Z,92.10
2019-01-26T18:14:40.122Z,92.20
2019-01-26T18:17:18.516Z,92.00
2019-01-26T18:19:53.344Z,92.20
2019-01-26T18:22:29.126Z,92.10
2019-01-26T18:25:03.121Z,92.20
2019-01-26T18:27:45.413Z,92.40
2019-01-26T18:30:23.134Z,92.30
2019-01-26T18:36:38.126Z,92.40
2019-01-26T18:42:52.674Z,91.90
2019-01-26T18:45:29.343Z,91.90
2019-01-26T18:48:05.607Z,91.90
2019-01-26T18:50:42.120Z,91.80
2019-01-26T18:53:17.141Z,91.70
2019-01-26T18:55:52.355Z,91.40
2019-01-26T18:58:28.403Z,91.70
2019-01-26T19:01:04.052Z,91.80
2019-01-26T19:03:44.410Z,91.60
2019-01-26T19:06:20.466Z,91.90
2019-01-26T19:08:56.525Z,91.60
2019-01-26T19:11:33.608Z,91.80
2019-01-26T19:14:09.666Z,91.70
2019-01-26T19:16:45.726Z,91.80
2019-01-26T19:19:23.835Z,91.70
2019-01-26T19:21:58.681Z,91.40
2019-01-26T19:24:34.715Z,91.40
2019-01-26T19:27:13.600Z,91.40
2019-01-26T19:29:48.466Z,91.60
2019-01-26T19:32:23.125Z,91.60
2019-01-26T19:34:58.153Z,91.40
2019-01-26T19:37:33.362Z,90.90
2019-01-26T19:40:09.421Z,90.90
2019-01-26T19:42:45.889Z,91.10
2019-01-26T19:45:22.354Z,91.60
2019-01-26T19:51:39.390Z,91.60
2019-01-26T19:54:13.401Z,91.60
2019-01-26T20:00:16.714Z,91.80
2019-01-26T20:06:20.646Z,92.10
2019-01-26T20:08:55.678Z,92.20
2019-01-26T20:11:30.506Z,92.00
2019-01-26T20:14:07.213Z,91.90
2019-01-26T20:16:43.647Z,91.90
2019-01-26T20:22:46.756Z,92.00
2019-01-26T20:25:22.404Z,91.90
2019-01-26T20:27:56.625Z,91.80
2019-01-26T20:30:33.699Z,91.90
2019-01-26T20:33:08.735Z,92.10
2019-01-26T20:35:43.187Z,92.20
2019-01-26T20:38:17.193Z,92.20
2019-01-26T20:40:55.678Z,91.80
2019-01-26T20:43:31.186Z,92.00
2019-01-26T20:46:06.769Z,91.90
2019-01-26T20:48:41.392Z,91.70
2019-01-26T20:51:17.654Z,91.60
2019-01-26T20:53:52.186Z,91.80
2019-01-26T20:56:27.514Z,91.80
2019-01-26T20:59:02.184Z,92.00
2019-01-26T21:01:37.587Z,91.90
2019-01-26T21:04:14.461Z,91.90
2019-01-26T21:06:50.183Z,92.10
2019-01-26T21:09:24.528Z,92.10
2019-01-26T21:11:59.560Z,92.30
2019-01-26T21:14:34.417Z,92.50
2019-01-26T21:17:10.187Z,92.30
2019-01-26T21:23:24.617Z,92.90
2019-01-26T21:29:39.808Z,92.80
2019-01-26T21:32:14.435Z,92.80
2019-01-26T21:34:49.159Z,92.60
2019-01-26T21:41:05.206Z,92.30
2019-01-26T21:43:39.313Z,92.50
2019-01-26T21:46:16.389Z,92.70
2019-01-26T21:48:50.888Z,92.60
2019-01-26T21:51:26.740Z,92.50
2019-01-26T21:57:42.857Z,92.50
2019-01-26T22:00:22.397Z,92.60
2019-01-26T22:02:57.427Z,92.70
2019-01-26T22:05:33.278Z,92.60
2019-01-26T22:08:08.315Z,92.50
2019-01-26T22:14:00.878Z,92.50
2019-01-26T22:16:35.921Z,92.50
2019-01-26T22:19:11.969Z,92.50
2019-01-26T22:25:29.825Z,92.70
2019-01-26T22:28:07.417Z,92.50
2019-01-26T22:30:42.421Z,92.10
2019-01-26T22:36:58.771Z,92.90
2019-01-26T22:39:34.008Z,92.70
2019-01-26T22:42:08.837Z,92.70
2019-01-26T22:44:44.895Z,92.80
2019-01-26T22:47:20.954Z,93.10
2019-01-26T22:49:56.425Z,93.10
2019-01-26T22:52:31.632Z,92.90
2019-01-26T22:58:11.437Z,92.80
2019-01-26T23:04:21.880Z,92.70
2019-01-26T23:10:59.430Z,92.30
2019-01-26T23:14:14.979Z,92.10
2019-01-26T23:17:30.769Z,92.20
2019-01-26T23:20:14.434Z,92.30
2019-01-26T23:23:42.420Z,92.30
2019-01-26T23:26:42.090Z,92.40
2019-01-26T23:29:30.641Z,92.70
2019-01-26T23:35:33.955Z,93.10
2019-01-26T23:41:36.861Z,93.10
2019-01-26T23:44:12.099Z,92.80
2019-01-26T23:46:46.425Z,92.90
2019-01-26T23:49:21.420Z,93.00
2019-01-26T23:55:35.432Z,93.00
